Time;durP1;ratioP1;P1;durP2;ratioP2;P2;SDS_P1;SDS_P2;PMS_P1;PMS_P2;Temp;Humidity;BMP_temperature;BMP_pressure;BME280_temperature;BME280_humidity;BME280_pressure;Samples;Min_cycle;Max_cycle;Signal;HPM_P1;HPM_P2
2024/01/29 00:30:39;;;;;;;43.60;23.50;;;;;;;1.99;100.00;102604.52;102574;1294;600944;-79
2024/01/29 00:33:07;;;;;;;42.70;23.40;;;;;;;1.96;100.00;102606.91;105083;1263;59638;-79
2024/01/29 00:35:36;;;;;;;46.20;24.50;;;;;;;1.97;100.00;102609.86;105366;1260;59554;-78
2024/01/29 00:38:03;;;;;;;40.70;23.30;;;;;;;1.97;100.00;102614.16;105117;1267;70604;-79
2024/01/29 00:40:33;;;;;;;37.50;22.30;;;;;;;1.98;100.00;102615.73;105377;1259;62687;-77
2024/01/29 00:43:01;;;;;;;41.90;24.00;;;;;;;1.97;100.00;102615.71;105485;1259;72730;-76
2024/01/29 00:45:29;;;;;;;45.10;24.20;;;;;;;1.96;100.00;102622.27;105373;1256;203174;-78
2024/01/29 00:47:56;;;;;;;39.80;22.50;;;;;;;1.93;100.00;102620.52;105584;1255;59297;-78
2024/01/29 00:50:24;;;;;;;46.40;24.40;;;;;;;1.88;100.00;102623.94;105521;1256;71594;-77
2024/01/29 00:52:52;;;;;;;46.20;24.40;;;;;;;1.84;100.00;102625.77;105442;1258;62400;-78
2024/01/29 00:55:20;;;;;;;40.50;23.20;;;;;;;1.83;100.00;102624.41;105567;1256;72666;-77
2024/01/29 00:57:47;;;;;;;40.50;24.70;;;;;;;1.82;100.00;102629.41;105614;1259;61154;-77
2024/01/29 01:00:15;;;;;;;47.60;24.60;;;;;;;1.80;100.00;102629.20;106210;1256;60149;-75
2024/01/29 01:02:43;;;;;;;46.90;25.70;;;;;;;1.77;100.00;102635.38;106091;1260;73146;-76
2024/01/29 01:05:10;;;;;;;45.30;24.70;;;;;;;1.76;100.00;102640.55;105856;1255;62264;-77
2024/01/29 01:07:38;;;;;;;45.00;25.90;;;;;;;1.77;100.00;102640.21;105505;1257;72772;-76
2024/01/29 01:10:07;;;;;;;42.80;23.20;;;;;;;1.80;100.00;102643.52;105417;1256;59765;-79
2024/01/29 01:12:34;;;;;;;38.10;25.80;;;;;;;1.84;100.00;102643.89;105496;1256;59992;-78
2024/01/29 01:15:02;;;;;;;43.80;24.90;;;;;;;1.85;100.00;102641.16;105486;1260;73111;-78
2024/01/29 01:17:30;;;;;;;41.30;24.10;;;;;;;1.85;100.00;102639.27;105573;1255;64746;-76
2024/01/29 01:19:57;;;;;;;46.60;26.70;;;;;;;1.84;100.00;102642.86;106147;1259;71924;-76
2024/01/29 01:22:25;;;;;;;39.10;24.00;;;;;;;1.82;100.00;102642.33;105761;1260;59867;-76
2024/01/29 01:24:52;;;;;;;43.20;25.80;;;;;;;1.81;100.00;102645.95;105723;1260;59634;-76
2024/01/29 01:27:20;;;;;;;42.60;24.10;;;;;;;1.80;100.00;102648.70;105515;1256;73122;-78
2024/01/29 01:29:47;;;;;;;45.10;25.60;;;;;;;1.82;100.00;102648.89;105559;1260;63736;-76
2024/01/29 01:32:15;;;;;;;45.30;23.60;;;;;;;1.85;100.00;102648.73;105573;1262;72641;-77
2024/01/29 01:34:42;;;;;;;40.70;22.80;;;;;;;1.88;100.00;102648.59;105581;1260;62063;-76
2024/01/29 01:37:10;;;;;;;43.00;24.00;;;;;;;1.91;100.00;102648.62;105501;1256;61176;-78
2024/01/29 01:39:37;;;;;;;40.50;23.30;;;;;;;1.93;100.00;102646.55;105540;1255;73250;-78
2024/01/29 01:42:05;;;;;;;42.90;24.30;;;;;;;1.92;100.00;102646.90;105789;1252;62306;-78
2024/01/29 01:44:33;;;;;;;42.30;22.80;;;;;;;1.93;100.00;102650.35;105800;1257;71416;-77
2024/01/29 01:47:00;;;;;;;42.40;23.90;;;;;;;1.95;100.00;102653.65;105858;1257;60026;-77
2024/01/29 01:49:29;;;;;;;38.20;24.20;;;;;;;1.97;100.00;102654.36;105903;1254;60035;-76
2024/01/29 01:51:57;;;;;;;45.90;24.80;;;;;;;1.98;100.00;102655.23;105882;1255;75813;-77
2024/01/29 01:54:25;;;;;;;37.20;21.80;;;;;;;2.01;100.00;102657.49;105763;1253;63665;-79
2024/01/29 01:56:52;;;;;;;44.20;23.40;;;;;;;2.01;100.00;102657.67;105638;1257;72821;-76
2024/01/29 01:59:20;;;;;;;41.90;22.80;;;;;;;2.00;100.00;102660.94;105741;1255;59674;-77
2024/01/29 02:01:49;;;;;;;40.10;22.10;;;;;;;1.99;100.00;102668.86;105911;1252;60227;-77
2024/01/29 02:04:16;;;;;;;42.10;23.20;;;;;;;1.95;100.00;102669.69;105907;1256;71846;-76
2024/01/29 02:06:44;;;;;;;35.00;21.70;;;;;;;1.92;100.00;102673.11;105781;1252;63737;-79
2024/01/29 02:09:12;;;;;;;40.10;23.00;;;;;;;1.93;100.00;102673.29;105786;1255;72712;-74
2024/01/29 02:11:39;;;;;;;37.40;20.80;;;;;;;1.95;100.00;102677.63;105772;1253;59690;-76
2024/01/29 02:14:07;;;;;;;40.40;23.40;;;;;;;1.96;100.00;102678.33;105862;1253;60157;-75
2024/01/29 02:16:34;;;;;;;34.90;20.90;;;;;;;1.95;100.00;102685.38;105792;1255;73019;-76
2024/01/29 02:19:03;;;;;;;31.80;18.20;;;;;;;1.97;100.00;102680.75;107021;1251;62326;-76
2024/01/29 02:21:31;;;;;;;30.80;15.50;;;;;;;1.97;100.00;102684.20;108152;1253;71384;-76
2024/01/29 02:23:58;;;;;;;23.20;14.70;;;;;;;1.96;100.00;102685.23;107914;1251;59744;-77
2024/01/29 02:26:26;;;;;;;20.50;13.20;;;;;;;1.94;100.00;102686.93;107834;1256;59678;-77
2024/01/29 02:28:53;;;;;;;21.30;12.40;;;;;;;1.90;100.00;102692.93;106026;1253;72490;-79
2024/01/29 02:31:20;;;;;;;18.60;12.50;;;;;;;1.86;100.00;102701.52;105848;1252;62673;-77
2024/01/29 02:33:48;;;;;;;14.50;10.50;;;;;;;1.83;100.00;102707.52;105831;1258;72705;-78
2024/01/29 02:36:16;;;;;;;13.60;9.30;;;;;;;1.79;100.00;102709.20;105997;1253;59720;-77
2024/01/29 02:38:44;;;;;;;11.60;8.40;;;;;;;1.73;100.00;102708.63;105990;1256;59632;-77
2024/01/29 02:41:12;;;;;;;11.10;8.80;;;;;;;1.69;100.00;102709.44;105827;1256;73034;-77
2024/01/29 02:43:41;;;;;;;12.70;8.20;;;;;;;1.68;100.00;102708.58;105788;1256;64278;-77
2024/01/29 02:46:09;;;;;;;11.40;7.50;;;;;;;1.68;100.00;102709.10;105909;1252;72543;-78
2024/01/29 02:48:37;;;;;;;11.60;8.40;;;;;;;1.69;100.00;102715.14;105739;1256;59731;-77
2024/01/29 02:51:06;;;;;;;11.00;8.30;;;;;;;1.72;100.00;102715.35;105879;1251;60105;-78
2024/01/29 02:53:34;;;;;;;11.50;8.20;;;;;;;1.77;100.00;102713.84;105801;1253;72021;-78
2024/01/29 02:56:02;;;;;;;10.70;7.60;;;;;;;1.80;100.00;102713.88;105709;1257;62575;-77
2024/01/29 02:58:31;;;;;;;10.60;7.70;;;;;;;1.81;100.00;102710.78;105888;1256;72526;-76
2024/01/29 03:00:59;;;;;;;10.10;7.90;;;;;;;1.81;100.00;102714.92;105867;1253;60112;-76
2024/01/29 03:03:27;;;;;;;11.40;6.90;;;;;;;1.82;100.00;102722.35;105897;1253;59992;-79
2024/01/29 03:05:54;;;;;;;9.80;7.50;;;;;;;1.81;100.00;102726.98;105778;1253;72159;-78
2024/01/29 03:08:21;;;;;;;8.80;7.00;;;;;;;1.76;100.00;102730.05;105873;1257;63762;-77
2024/01/29 03:10:50;;;;;;;10.30;8.10;;;;;;;1.76;100.00;102736.60;105909;1255;72312;-79
2024/01/29 03:13:17;;;;;;;10.90;7.70;;;;;;;1.79;100.00;102736.96;105782;1255;61261;-76
2024/01/29 03:28:28;;;;;;;11.20;8.10;;;;;;;1.75;100.00;102748.31;102922;1289;600246;-76
2024/01/29 03:30:56;;;;;;;12.60;8.30;;;;;;;1.73;100.00;102751.20;105875;1264;60015;-79
2024/01/29 03:33:24;;;;;;;10.80;8.10;;;;;;;1.75;100.00;102756.41;106999;1264;59263;-77
2024/01/29 03:35:51;;;;;;;8.50;7.50;;;;;;;1.74;100.00;102757.79;108663;1264;70753;-77
2024/01/29 03:38:19;;;;;;;12.60;8.20;;;;;;;1.72;100.00;102760.18;108705;1264;63160;-78
2024/01/29 03:40:47;;;;;;;10.80;8.30;;;;;;;1.75;100.00;102760.04;108567;1264;71335;-77
2024/01/29 03:43:14;;;;;;;12.50;8.10;;;;;;;1.81;100.00;102761.48;106609;1259;246258;-75
2024/01/29 03:45:42;;;;;;;9.90;7.60;;;;;;;1.86;100.00;102769.12;105849;1254;60133;-78
2024/01/29 03:48:09;;;;;;;12.00;7.80;;;;;;;1.90;100.00;102775.89;105919;1254;71230;-77
2024/01/29 03:50:36;;;;;;;11.20;8.60;;;;;;;1.92;100.00;102780.74;105551;1255;62309;-78
2024/01/29 03:53:04;;;;;;;11.80;9.20;;;;;;;1.91;100.00;102784.35;105467;1260;72636;-79
2024/01/29 03:55:31;;;;;;;10.40;7.70;;;;;;;1.90;100.00;102790.73;105429;1260;59895;-79
2024/01/29 03:58:02;;;;;;;10.60;7.80;;;;;;;1.87;100.00;102789.48;109699;1251;58835;-77
2024/01/29 04:00:30;;;;;;;9.90;7.60;;;;;;;1.84;100.00;102786.52;109671;1250;73056;-80
2024/01/29 04:02:58;;;;;;;13.00;8.70;;;;;;;1.83;100.00;102788.92;109695;1250;63632;-78
2024/01/29 04:05:25;;;;;;;8.20;6.80;;;;;;;1.83;100.00;102790.99;109651;1251;72823;-79
2024/01/29 04:07:53;;;;;;;11.10;8.10;;;;;;;1.87;100.00;102791.89;109660;1251;59551;-78
2024/01/29 04:10:21;;;;;;;9.40;8.30;;;;;;;1.92;100.00;102791.61;109709;1251;58911;-77
2024/01/29 04:12:48;;;;;;;8.80;6.70;;;;;;;1.96;100.00;102793.37;109736;1251;75339;-80
2024/01/29 04:15:16;;;;;;;8.40;7.30;;;;;;;1.98;100.00;102796.69;109749;1251;62324;-80
2024/01/29 04:17:43;;;;;;;9.90;8.10;;;;;;;1.98;100.00;102799.95;109683;1251;71433;-78
2024/01/29 04:20:11;;;;;;;9.60;7.60;;;;;;;2.00;100.00;102804.80;109640;1251;58629;-79
2024/01/29 04:22:38;;;;;;;10.50;7.50;;;;;;;2.03;100.00;102808.12;109759;1250;59764;-78
2024/01/29 04:25:06;;;;;;;10.30;8.00;;;;;;;2.06;100.00;102811.09;109735;1250;71837;-78
2024/01/29 04:27:34;;;;;;;7.50;6.70;;;;;;;2.11;100.00;102815.96;109710;1251;62392;-77
2024/01/29 04:30:02;;;;;;;8.30;7.30;;;;;;;2.15;100.00;102815.15;109631;1251;71532;-79
2024/01/29 04:32:30;;;;;;;10.40;7.40;;;;;;;2.14;100.00;102816.17;109671;1251;59619;-81
2024/01/29 04:34:57;;;;;;;9.40;7.60;;;;;;;2.08;100.00;102825.26;109720;1251;58916;-78
2024/01/29 04:37:25;;;;;;;9.40;7.70;;;;;;;1.99;100.00;102827.58;109703;1251;73114;-78
2024/01/29 04:39:54;;;;;;;10.80;8.30;;;;;;;1.94;100.00;102830.45;109697;1250;63558;-79
2024/01/29 04:42:23;;;;;;;12.40;9.10;;;;;;;1.95;100.00;102832.00;109684;1251;71214;-78
2024/01/29 04:44:50;;;;;;;11.50;8.40;;;;;;;1.94;100.00;102835.61;109634;1252;60898;-78
2024/01/29 04:47:17;;;;;;;11.80;8.80;;;;;;;1.92;100.00;102836.11;109710;1250;58794;-78
2024/01/29 04:49:45;;;;;;;13.10;9.00;;;;;;;1.93;100.00;102840.09;109750;1251;72128;-79
2024/01/29 04:52:12;;;;;;;11.30;8.10;;;;;;;1.93;100.00;102846.65;109698;1250;62923;-78
2024/01/29 04:54:40;;;;;;;9.50;8.00;;;;;;;1.90;100.00;102851.27;109727;1250;70568;-78
2024/01/29 04:57:07;;;;;;;9.80;8.20;;;;;;;1.83;100.00;102854.80;109682;1251;59538;-78
2024/01/29 04:59:35;;;;;;;11.50;8.30;;;;;;;1.83;100.00;102855.66;109729;1251;60080;-79
2024/01/29 05:02:02;;;;;;;10.30;7.70;;;;;;;1.85;100.00;102862.59;109670;1251;71832;-78
2024/01/29 05:04:30;;;;;;;12.60;8.80;;;;;;;1.88;100.00;102864.69;109647;1251;62516;-78
2024/01/29 05:06:57;;;;;;;10.40;7.60;;;;;;;1.93;100.00;102868.89;109641;1251;71619;-77
2024/01/29 05:09:25;;;;;;;8.50;6.90;;;;;;;1.97;100.00;102875.85;109651;1251;59614;-79
2024/01/29 05:11:55;;;;;;;10.10;7.70;;;;;;;2.01;100.00;102881.41;109942;1250;58872;-78
2024/01/29 05:14:26;;;;;;;8.20;7.00;;;;;;;2.00;100.00;102882.61;109920;1251;72251;-78
2024/01/29 05:16:54;;;;;;;9.40;7.70;;;;;;;1.98;100.00;102884.83;109928;1250;62965;-76
2024/01/29 05:19:21;;;;;;;9.70;7.70;;;;;;;1.93;100.00;102888.21;109752;1251;71052;-79
2024/01/29 05:21:49;;;;;;;7.30;6.60;;;;;;;1.91;100.00;102886.98;109664;1251;59705;-79
2024/01/29 05:24:17;;;;;;;9.60;6.90;;;;;;;1.87;100.00;102892.27;109748;1251;59921;-78
2024/01/29 05:26:46;;;;;;;9.20;7.40;;;;;;;1.84;100.00;102897.07;109633;1251;73075;-78
2024/01/29 05:29:14;;;;;;;10.00;7.90;;;;;;;1.83;100.00;102900.17;109692;1251;63789;-79
2024/01/29 05:35:43;;;;;;;9.70;7.70;;;;;;;1.84;100.00;102916.39;102727;1290;600337;-79
2024/01/29 05:38:11;;;;;;;8.30;7.20;;;;;;;1.82;100.00;102920.33;104908;1267;61110;-78
2024/01/29 05:40:39;;;;;;;9.40;8.00;;;;;;;1.86;100.00;102924.70;104672;1271;59359;-80
2024/01/29 05:43:07;;;;;;;8.60;7.50;;;;;;;1.85;100.00;102931.23;104963;1271;70287;-78
2024/01/29 05:45:35;;;;;;;9.30;7.00;;;;;;;1.82;100.00;102934.30;105190;1260;63820;-79
2024/01/29 05:48:04;;;;;;;9.00;7.50;;;;;;;1.77;100.00;102935.09;105123;1263;72315;-79
2024/01/29 05:50:32;;;;;;;9.80;8.50;;;;;;;1.72;100.00;102936.73;105228;1260;161402;-80
2024/01/29 05:52:59;;;;;;;8.30;6.90;;;;;;;1.73;100.00;102932.80;105366;1263;59298;-79
2024/01/29 05:55:27;;;;;;;11.40;8.30;;;;;;;1.73;100.00;102935.20;105362;1264;71132;-80
2024/01/29 05:57:55;;;;;;;10.60;7.80;;;;;;;1.73;100.00;102937.80;105485;1260;64261;-82
2024/01/29 06:00:23;;;;;;;7.80;6.80;;;;;;;1.73;100.00;102942.80;105430;1260;72737;-80
2024/01/29 06:02:52;;;;;;;11.20;7.50;;;;;;;1.70;100.00;102943.77;105455;1255;60073;-82
2024/01/29 06:05:19;;;;;;;10.00;8.20;;;;;;;1.71;100.00;102944.66;105466;1257;59798;-81
2024/01/29 06:07:47;;;;;;;10.10;8.40;;;;;;;1.76;100.00;102945.93;105441;1256;71853;-80
2024/01/29 06:10:15;;;;;;;11.50;9.00;;;;;;;1.79;100.00;102946.48;105526;1255;62703;-81
2024/01/29 06:12:43;;;;;;;11.70;8.10;;;;;;;1.79;100.00;102948.56;105542;1257;71517;-81
2024/01/29 06:15:10;;;;;;;9.00;7.30;;;;;;;1.72;100.00;102953.47;105629;1260;60925;-81
2024/01/29 06:17:39;;;;;;;10.30;7.80;;;;;;;1.66;100.00;102952.86;105732;1251;59988;-79
2024/01/29 06:20:07;;;;;;;8.80;7.40;;;;;;;1.65;100.00;102956.30;105788;1257;71520;-78
2024/01/29 06:22:46;;;;;;;8.80;7.00;;;;;;;1.69;100.00;102957.91;106261;1252;62761;-77
2024/01/29 06:25:16;;;;;;;9.80;7.90;;;;;;;1.77;100.00;102957.16;107514;1253;71847;-77
2024/01/29 06:27:44;;;;;;;10.00;7.80;;;;;;;1.82;100.00;102959.30;107554;1252;59623;-78
2024/01/29 06:30:12;;;;;;;9.60;7.50;;;;;;;1.84;100.00;102962.27;106263;1253;59982;-78
2024/01/29 06:32:40;;;;;;;10.00;8.10;;;;;;;1.89;100.00;102964.58;105949;1251;71581;-80
2024/01/29 06:35:08;;;;;;;10.00;7.60;;;;;;;1.89;100.00;102963.73;105957;1251;62601;-80
2024/01/29 06:37:36;;;;;;;10.20;7.40;;;;;;;1.92;100.00;102967.88;105754;1253;70242;-78
2024/01/29 06:40:04;;;;;;;9.30;7.70;;;;;;;1.96;100.00;102969.50;105771;1258;60830;-80
2024/01/29 06:42:32;;;;;;;9.60;7.80;;;;;;;1.99;100.00;102978.69;105886;1251;59601;-77
2024/01/29 06:44:59;;;;;;;9.30;8.00;;;;;;;2.03;100.00;102978.55;105818;1257;73505;-79
2024/01/29 06:47:27;;;;;;;9.80;8.10;;;;;;;2.03;100.00;102979.42;105892;1259;62415;-81
2024/01/29 06:49:58;;;;;;;10.40;8.50;;;;;;;2.04;100.00;102983.76;105774;1253;70061;-80
2024/01/29 06:52:27;;;;;;;9.50;7.40;;;;;;;2.07;100.00;102984.83;105894;1254;59972;-81
2024/01/29 06:54:56;;;;;;;10.20;8.00;;;;;;;2.05;100.00;102985.67;105955;1251;60107;-81
2024/01/29 06:57:24;;;;;;;10.60;8.10;;;;;;;2.00;100.00;102991.30;105828;1257;72884;-78
2024/01/29 06:59:51;;;;;;;11.90;8.70;;;;;;;2.00;100.00;102992.85;105836;1253;63984;-81
2024/01/29 07:02:19;;;;;;;11.30;8.40;;;;;;;2.06;100.00;102995.34;105824;1257;72678;-79
2024/01/29 07:04:46;;;;;;;11.50;8.30;;;;;;;2.13;100.00;102993.36;105736;1251;60314;-79
2024/01/29 07:07:14;;;;;;;11.90;9.10;;;;;;;2.18;100.00;102999.13;105837;1253;60983;-80
2024/01/29 07:09:43;;;;;;;11.50;9.10;;;;;;;2.23;100.00;103001.61;105939;1251;72292;-80
2024/01/29 07:12:10;;;;;;;11.60;8.90;;;;;;;2.25;100.00;103005.60;106118;1253;62129;-80
2024/01/29 07:14:37;;;;;;;12.60;8.80;;;;;;;2.24;100.00;103005.08;106069;1253;71871;-79
2024/01/29 07:17:08;;;;;;;11.90;9.10;;;;;;;2.25;100.00;103008.02;105799;1258;62832;-79
2024/01/29 07:19:36;;;;;;;11.00;8.40;;;;;;;2.27;100.00;103012.02;105772;1257;59681;-79
2024/01/29 07:22:04;;;;;;;12.80;10.10;;;;;;;2.30;100.00;103010.84;106124;1253;70759;-80
2024/01/29 07:24:34;;;;;;;12.40;9.90;;;;;;;2.33;100.00;103016.57;109255;1251;62467;-78
2024/01/29 12:48:10;;;;;;;5.80;5.20;;;;;;;4.78;100.00;103134.12;102417;1294;616224;-79
2024/01/29 12:50:39;;;;;;;7.10;5.50;;;;;;;4.80;100.00;103126.32;105153;1266;59338;-80
2024/01/29 12:53:12;;;;;;;8.10;5.90;;;;;;;4.83;100.00;103125.81;105248;1267;59282;-78
2024/01/29 12:55:39;;;;;;;5.90;5.20;;;;;;;4.86;100.00;103125.48;106004;1258;72276;-80
2024/01/29 12:58:06;;;;;;;9.20;6.70;;;;;;;4.92;100.00;103131.73;105979;1257;63331;-80
2024/01/29 13:00:33;;;;;;;8.00;6.50;;;;;;;4.92;100.00;103127.93;106917;1254;177767;-81
2024/01/29 13:03:00;;;;;;;8.00;6.70;;;;;;;4.90;100.00;103129.84;106226;1254;60171;-80
2024/01/29 13:05:31;;;;;;;9.10;6.80;;;;;;;4.89;100.00;103133.65;106102;1257;61036;-80
2024/01/29 13:08:00;;;;;;;10.60;6.80;;;;;;;4.87;100.00;103136.06;106049;1257;70395;-80
2024/01/29 13:10:29;;;;;;;12.30;7.40;;;;;;;4.85;100.00;103136.23;105940;1252;64933;-80
2024/01/29 13:13:07;;;;;;;12.70;8.60;;;;;;;4.85;100.00;103140.20;105882;1254;71145;-79
2024/01/29 13:15:35;;;;;;;11.60;7.50;;;;;;;4.88;100.00;103144.56;106164;1257;62219;-80
2024/01/29 13:18:03;;;;;;;10.50;8.00;;;;;;;4.90;100.00;103148.20;105975;1255;59548;-79
2024/01/29 13:20:30;;;;;;;13.10;9.30;;;;;;;4.80;100.00;103150.92;106153;1253;73172;-80
2024/01/29 13:22:57;;;;;;;27.10;13.40;;;;;;;4.70;100.00;103152.96;105813;1254;65057;-81
2024/01/29 13:25:24;;;;;;;19.30;12.40;;;;;;;4.59;100.00;103160.35;105787;1254;72782;-81
2024/01/29 13:27:52;;;;;;;26.40;15.70;;;;;;;4.48;100.00;103161.31;105823;1257;60757;-81
2024/01/29 13:30:19;;;;;;;23.60;14.50;;;;;;;4.37;100.00;103166.27;105825;1252;59632;-80
2024/01/29 13:32:46;;;;;;;25.60;15.00;;;;;;;4.31;100.00;103168.48;105838;1254;73069;-79
2024/01/29 13:35:13;;;;;;;28.20;13.80;;;;;;;4.31;100.00;103170.20;105900;1256;64493;-81
2024/01/29 13:37:39;;;;;;;26.50;15.40;;;;;;;4.31;100.00;103173.50;105814;1257;71407;-81
2024/01/29 13:40:09;;;;;;;23.60;13.60;;;;;;;4.28;100.00;103176.59;105916;1257;62500;-80
2024/01/29 13:42:37;;;;;;;26.20;13.70;;;;;;;4.24;100.00;103175.02;106006;1252;60248;-80
2024/01/29 13:45:07;;;;;;;27.10;14.60;;;;;;;4.18;100.00;103179.81;105823;1256;72420;-80
2024/01/29 13:47:34;;;;;;;22.90;13.00;;;;;;;4.11;100.00;103180.27;105849;1256;63203;-82
2024/01/29 13:50:02;;;;;;;27.30;15.90;;;;;;;4.02;100.00;103182.79;105835;1253;72108;-80
2024/01/29 13:52:30;;;;;;;27.50;14.50;;;;;;;3.95;100.00;103185.67;105910;1256;62307;-79
2024/01/29 13:54:57;;;;;;;25.20;14.40;;;;;;;3.90;100.00;103185.10;106006;1256;60206;-80
2024/01/29 13:57:25;;;;;;;25.80;13.80;;;;;;;3.85;100.00;103191.45;105920;1257;72980;-80
2024/01/29 13:59:53;;;;;;;24.50;13.70;;;;;;;3.81;100.00;103191.59;105852;1254;65261;-79
2024/01/29 14:02:20;;;;;;;23.90;14.20;;;;;;;3.71;100.00;103192.36;106139;1254;70566;-79
2024/01/29 14:04:49;;;;;;;31.70;15.30;;;;;;;3.61;100.00;103191.05;106129;1256;60932;-77
2024/01/29 14:07:16;;;;;;;26.10;15.10;;;;;;;3.56;100.00;103192.55;106036;1256;59605;-80
2024/01/29 14:09:45;;;;;;;25.40;14.00;;;;;;;3.51;100.00;103190.60;105993;1254;72902;-80
2024/01/29 14:12:12;;;;;;;29.20;16.10;;;;;;;3.47;100.00;103196.27;105859;1253;62360;-80
2024/01/29 14:14:39;;;;;;;27.80;14.50;;;;;;;3.40;100.00;103195.84;105909;1253;73855;-80
2024/01/29 14:17:17;;;;;;;25.20;13.80;;;;;;;3.31;100.00;103202.46;105865;1254;61055;-80
2024/01/29 14:19:47;;;;;;;26.00;14.80;;;;;;;3.24;100.00;103207.41;106625;1254;61104;-79
2024/01/29 14:22:17;;;;;;;27.00;14.10;;;;;;;3.16;100.00;103212.31;106798;1252;73032;-79
2024/01/29 14:24:46;;;;;;;27.40;15.40;;;;;;;3.09;100.00;103220.34;106379;1254;61812;-78
2024/01/29 14:27:13;;;;;;;26.50;15.10;;;;;;;3.05;100.00;103220.45;106205;1254;73796;-78
2024/01/29 14:29:40;;;;;;;30.00;16.10;;;;;;;3.01;100.00;103218.85;106117;1256;62312;-79
2024/01/29 14:32:08;;;;;;;29.40;15.90;;;;;;;3.01;100.00;103222.66;106106;1256;60215;-79
2024/01/29 14:34:38;;;;;;;29.80;17.00;;;;;;;3.02;100.00;103221.96;106051;1254;73276;-80
2024/01/29 14:37:05;;;;;;;32.90;16.80;;;;;;;3.04;100.00;103223.91;105955;1257;62448;-79
2024/01/29 14:39:35;;;;;;;34.90;18.40;;;;;;;2.96;100.00;103220.17;105831;1253;73831;-79
2024/01/29 14:42:03;;;;;;;37.30;18.90;;;;;;;2.86;100.00;103226.60;105851;1254;61114;-78
2024/01/29 14:44:30;;;;;;;35.40;19.50;;;;;;;2.80;100.00;103227.91;105863;1255;60566;-80
2024/01/29 14:47:01;;;;;;;38.90;19.20;;;;;;;2.77;100.00;103224.74;105823;1252;73441;-80
2024/01/29 14:49:28;;;;;;;34.80;19.50;;;;;;;2.74;100.00;103227.80;106010;1253;62875;-79
2024/01/29 14:51:55;;;;;;;32.90;19.00;;;;;;;2.73;100.00;103227.44;105830;1257;72985;-78
2024/01/29 14:54:23;;;;;;;32.00;18.70;;;;;;;2.71;100.00;103233.63;105916;1253;61180;-80
2024/01/29 14:56:50;;;;;;;34.90;19.60;;;;;;;2.69;100.00;103232.41;105847;1253;61486;-81
2024/01/29 14:59:18;;;;;;;31.80;18.20;;;;;;;2.68;100.00;103233.41;105934;1255;71943;-79
2024/01/29 15:01:45;;;;;;;37.20;20.90;;;;;;;2.67;100.00;103236.70;105877;1256;64157;-80
2024/01/29 15:04:11;;;;;;;37.90;20.10;;;;;;;2.65;100.00;103240.45;105902;1253;73541;-80
2024/01/29 15:06:43;;;;;;;32.60;17.40;;;;;;;2.62;100.00;103242.48;105820;1254;63039;-80
2024/01/29 15:09:11;;;;;;;34.10;18.70;;;;;;;2.61;100.00;103240.91;105964;1252;61405;-77
2024/01/29 15:11:39;;;;;;;34.70;18.40;;;;;;;2.60;100.00;103240.38;105940;1252;71998;-78
2024/01/29 15:14:06;;;;;;;30.20;16.80;;;;;;;2.56;100.00;103245.66;106027;1256;64129;-79
2024/01/29 15:16:35;;;;;;;33.30;18.30;;;;;;;2.53;100.00;103243.37;107126;1253;71656;-78
2024/01/29 15:19:02;;;;;;;33.20;18.30;;;;;;;2.47;100.00;103243.12;108507;1252;60875;-79
2024/01/29 15:21:31;;;;;;;29.50;17.40;;;;;;;2.46;100.00;103244.30;109548;1252;59797;-80
2024/01/29 15:23:58;;;;;;;30.80;17.90;;;;;;;2.44;100.00;103247.20;108209;1254;72948;-79
2024/01/29 15:26:27;;;;;;;33.90;17.60;;;;;;;2.44;100.00;103248.05;108279;1253;62891;-78
2024/01/29 15:28:56;;;;;;;33.00;18.60;;;;;;;2.42;100.00;103247.86;106589;1257;72683;-78
2024/01/29 15:31:28;;;;;;;35.50;17.50;;;;;;;2.42;100.00;103254.43;106290;1253;60172;-79
2024/01/29 15:33:56;;;;;;;31.90;17.50;;;;;;;2.41;100.00;103256.65;106286;1253;59584;-80
2024/01/29 15:36:23;;;;;;;31.10;16.30;;;;;;;2.40;100.00;103259.75;106515;1255;74005;-80
2024/01/29 15:38:52;;;;;;;25.60;14.90;;;;;;;2.39;100.00;103263.35;105927;1254;63083;-79
2024/01/29 15:41:21;;;;;;;29.50;17.20;;;;;;;2.39;100.00;103271.46;105971;1256;72843;-80
2024/01/29 15:43:48;;;;;;;28.40;16.30;;;;;;;2.34;100.00;103273.29;106123;1253;61535;-79
2024/01/29 15:46:16;;;;;;;31.30;16.90;;;;;;;2.29;100.00;103277.84;105942;1255;59943;-79
2024/01/29 15:48:44;;;;;;;28.70;15.50;;;;;;;2.26;100.00;103280.05;105882;1256;73946;-79
2024/01/29 15:51:12;;;;;;;34.70;17.60;;;;;;;2.24;100.00;103277.07;105817;1252;62102;-78
2024/01/29 15:53:40;;;;;;;27.30;16.20;;;;;;;2.23;100.00;103280.35;106021;1254;71646;-80
2024/01/29 15:56:07;;;;;;;30.60;17.60;;;;;;;2.23;100.00;103288.45;105941;1253;63186;-79
2024/01/29 15:58:34;;;;;;;29.70;16.80;;;;;;;2.23;100.00;103289.83;105919;1253;61406;-80
2024/01/29 16:01:01;;;;;;;27.30;16.40;;;;;;;2.20;100.00;103291.86;105826;1256;72493;-80
2024/01/29 16:03:30;;;;;;;30.20;17.70;;;;;;;2.17;100.00;103293.00;105898;1255;64280;-80
2024/01/29 16:05:57;;;;;;;28.40;16.50;;;;;;;2.13;100.00;103297.41;106016;1256;73873;-80
2024/01/29 16:08:24;;;;;;;24.70;15.50;;;;;;;2.09;100.00;103295.80;105915;1254;61173;-83
2024/01/29 16:10:50;;;;;;;28.10;14.10;;;;;;;2.04;100.00;103296.05;105893;1253;59501;-79
2024/01/29 16:13:17;;;;;;;27.50;16.80;;;;;;;1.99;100.00;103299.23;105871;1254;71999;-79
2024/01/29 16:15:44;;;;;;;27.70;17.40;;;;;;;1.95;100.00;103302.42;105841;1253;64127;-80
2024/01/29 16:18:10;;;;;;;27.60;15.60;;;;;;;1.93;100.00;103308.61;105992;1253;72961;-79
2024/01/29 16:20:41;;;;;;;26.10;15.40;;;;;;;1.91;100.00;103310.27;105751;1252;60411;-80
2024/01/29 16:23:07;;;;;;;24.60;14.30;;;;;;;1.91;100.00;103317.18;106009;1256;59602;-77
2024/01/29 16:25:34;;;;;;;23.20;14.50;;;;;;;1.90;100.00;103325.44;106097;1253;72466;-79
2024/01/29 16:28:03;;;;;;;28.10;15.70;;;;;;;1.87;100.00;103323.14;105998;1253;63757;-79
2024/01/29 16:30:31;;;;;;;23.80;14.90;;;;;;;1.86;100.00;103321.39;105785;1257;72794;-81
2024/01/29 16:32:58;;;;;;;22.90;14.40;;;;;;;1.88;100.00;103318.85;106016;1253;62226;-81
2024/01/29 16:35:25;;;;;;;26.30;15.50;;;;;;;1.90;100.00;103321.30;106035;1252;60402;-80
2024/01/29 16:37:52;;;;;;;25.70;16.20;;;;;;;1.90;100.00;103325.44;106152;1253;72136;-81
2024/01/29 16:40:19;;;;;;;27.00;16.40;;;;;;;1.88;100.00;103330.24;106355;1253;61960;-81
2024/01/29 16:42:46;;;;;;;25.80;15.60;;;;;;;1.87;100.00;103329.87;106329;1255;73810;-78
2024/01/29 16:45:13;;;;;;;26.70;14.70;;;;;;;1.85;100.00;103331.03;106390;1255;61323;-77
2024/01/29 16:47:44;;;;;;;24.60;14.60;;;;;;;1.84;100.00;103331.35;106319;1256;59566;-80
2024/01/29 16:50:12;;;;;;;24.70;15.10;;;;;;;1.81;100.00;103332.00;105979;1254;73068;-80
2024/01/29 16:52:39;;;;;;;26.60;13.30;;;;;;;1.77;100.00;103334.33;106007;1255;63948;-82
2024/01/29 16:55:06;;;;;;;22.60;13.20;;;;;;;1.72;100.00;103335.77;106149;1256;71679;-79
2024/01/29 16:57:34;;;;;;;25.50;15.20;;;;;;;1.68;100.00;103341.89;108409;1252;61078;-79
2024/01/29 17:00:03;;;;;;;22.60;13.70;;;;;;;1.65;100.00;103342.70;107387;1252;60283;-79
2024/01/29 17:02:32;;;;;;;23.70;14.50;;;;;;;1.65;100.00;103347.70;106781;1256;73683;-79
2024/01/29 17:05:00;;;;;;;24.80;14.90;;;;;;;1.63;100.00;103351.45;106280;1253;65261;-81
2024/01/29 17:07:28;;;;;;;22.90;14.10;;;;;;;1.60;100.00;103349.68;106180;1253;73684;-80
2024/01/29 17:09:55;;;;;;;24.60;12.40;;;;;;;1.59;100.00;103358.94;106190;1254;60844;-77
2024/01/29 17:12:24;;;;;;;20.00;12.60;;;;;;;1.56;100.00;103362.17;106055;1252;60334;-80
2024/01/29 17:14:50;;;;;;;18.70;13.00;;;;;;;1.54;100.00;103364.54;105952;1252;72817;-80
2024/01/29 17:17:18;;;;;;;19.30;11.90;;;;;;;1.52;100.00;103367.06;105896;1254;62729;-81